sensor_id;sensor_type;location;lat;lon;timestamp;P1;durP1;ratioP1;P2;durP2;ratioP2
22304;SDS011;18742;49.194;11.020;2022-07-17T00:00:44;5.07;;;3.55;;
22304;SDS011;18742;49.194;11.020;2022-07-17T00:03:10;4.82;;;3.33;;
22304;SDS011;18742;49.194;11.020;2022-07-17T00:05:37;6.53;;;3.50;;
22304;SDS011;18742;49.194;11.020;2022-07-17T00:08:03;7.22;;;3.90;;
22304;SDS011;18742;49.194;11.020;2022-07-17T00:10:31;4.60;;;3.90;;
22304;SDS011;18742;49.194;11.020;2022-07-17T00:12:57;10.57;;;4.32;;
22304;SDS011;18742;49.194;11.020;2022-07-17T00:15:23;8.32;;;4.40;;
22304;SDS011;18742;49.194;11.020;2022-07-17T00:17:48;8.25;;;4.40;;
22304;SDS011;18742;49.194;11.020;2022-07-17T00:20:14;5.90;;;4.50;;
22304;SDS011;18742;49.194;11.020;2022-07-17T00:22:40;6.03;;;4.43;;
22304;SDS011;18742;49.194;11.020;2022-07-17T00:25:08;6.50;;;3.80;;
22304;SDS011;18742;49.194;11.020;2022-07-17T00:27:34;8.10;;;4.20;;
22304;SDS011;18742;49.194;11.020;2022-07-17T00:30:01;5.05;;;3.80;;
22304;SDS011;18742;49.194;11.020;2022-07-17T00:32:28;6.80;;;4.47;;
22304;SDS011;18742;49.194;11.020;2022-07-17T00:34:54;5.88;;;4.03;;
22304;SDS011;18742;49.194;11.020;2022-07-17T00:37:19;7.03;;;3.85;;
22304;SDS011;18742;49.194;11.020;2022-07-17T00:39:45;6.28;;;4.35;;
22304;SDS011;18742;49.194;11.020;2022-07-17T00:42:15;5.95;;;3.75;;
22304;SDS011;18742;49.194;11.020;2022-07-17T00:44:41;4.43;;;3.72;;
22304;SDS011;18742;49.194;11.020;2022-07-17T00:47:11;7.88;;;3.90;;
22304;SDS011;18742;49.194;11.020;2022-07-17T00:49:41;4.63;;;3.45;;
22304;SDS011;18742;49.194;11.020;2022-07-17T00:52:07;6.22;;;3.60;;
22304;SDS011;18742;49.194;11.020;2022-07-17T00:54:35;5.82;;;4.47;;
22304;SDS011;18742;49.194;11.020;2022-07-17T00:57:03;7.53;;;4.32;;
22304;SDS011;18742;49.194;11.020;2022-07-17T00:59:33;10.18;;;4.40;;
22304;SDS011;18742;49.194;11.020;2022-07-17T01:02:02;6.78;;;4.13;;
22304;SDS011;18742;49.194;11.020;2022-07-17T01:04:32;6.03;;;4.00;;
22304;SDS011;18742;49.194;11.020;2022-07-17T01:06:59;7.65;;;4.25;;
22304;SDS011;18742;49.194;11.020;2022-07-17T01:09:26;7.32;;;4.20;;
22304;SDS011;18742;49.194;11.020;2022-07-17T01:11:53;5.38;;;4.35;;
22304;SDS011;18742;49.194;11.020;2022-07-17T01:14:19;5.38;;;4.03;;
22304;SDS011;18742;49.194;11.020;2022-07-17T01:16:44;6.47;;;4.30;;
22304;SDS011;18742;49.194;11.020;2022-07-17T01:19:11;6.60;;;4.40;;
22304;SDS011;18742;49.194;11.020;2022-07-17T01:21:38;8.10;;;5.03;;
22304;SDS011;18742;49.194;11.020;2022-07-17T01:24:05;8.70;;;5.38;;
22304;SDS011;18742;49.194;11.020;2022-07-17T01:26:31;6.15;;;5.07;;
22304;SDS011;18742;49.194;11.020;2022-07-17T01:28:56;6.78;;;5.13;;
22304;SDS011;18742;49.194;11.020;2022-07-17T01:31:22;8.20;;;4.82;;
22304;SDS011;18742;49.194;11.020;2022-07-17T01:33:48;7.93;;;5.00;;
22304;SDS011;18742;49.194;11.020;2022-07-17T01:36:14;7.00;;;5.00;;
22304;SDS011;18742;49.194;11.020;2022-07-17T01:38:39;8.38;;;5.10;;
22304;SDS011;18742;49.194;11.020;2022-07-17T01:41:05;6.15;;;4.80;;
22304;SDS011;18742;49.194;11.020;2022-07-17T01:43:30;7.68;;;4.78;;
22304;SDS011;18742;49.194;11.020;2022-07-17T01:45:56;6.88;;;4.72;;
22304;SDS011;18742;49.194;11.020;2022-07-17T01:48:22;5.47;;;4.60;;
22304;SDS011;18742;49.194;11.020;2022-07-17T01:50:49;5.63;;;4.40;;
22304;SDS011;18742;49.194;11.020;2022-07-17T01:53:15;5.00;;;4.50;;
22304;SDS011;18742;49.194;11.020;2022-07-17T01:55:40;6.10;;;4.35;;
22304;SDS011;18742;49.194;11.020;2022-07-17T01:58:06;5.15;;;4.07;;
22304;SDS011;18742;49.194;11.020;2022-07-17T02:00:31;6.18;;;4.70;;
22304;SDS011;18742;49.194;11.020;2022-07-17T02:02:57;5.38;;;4.70;;
22304;SDS011;18742;49.194;11.020;2022-07-17T02:05:22;7.70;;;4.35;;
22304;SDS011;18742;49.194;11.020;2022-07-17T02:07:48;7.85;;;5.03;;
22304;SDS011;18742;49.194;11.020;2022-07-17T02:10:14;8.20;;;4.93;;
22304;SDS011;18742;49.194;11.020;2022-07-17T02:12:39;7.40;;;4.50;;
22304;SDS011;18742;49.194;11.020;2022-07-17T02:15:05;7.55;;;5.22;;
22304;SDS011;18742;49.194;11.020;2022-07-17T02:17:31;9.45;;;4.53;;
22304;SDS011;18742;49.194;11.020;2022-07-17T02:19:57;5.13;;;4.60;;
22304;SDS011;18742;49.194;11.020;2022-07-17T02:22:23;6.53;;;5.15;;
22304;SDS011;18742;49.194;11.020;2022-07-17T02:24:48;8.35;;;4.70;;
22304;SDS011;18742;49.194;11.020;2022-07-17T02:27:14;7.35;;;5.00;;
22304;SDS011;18742;49.194;11.020;2022-07-17T02:29:39;6.85;;;4.95;;
22304;SDS011;18742;49.194;11.020;2022-07-17T02:32:05;6.05;;;5.20;;
22304;SDS011;18742;49.194;11.020;2022-07-17T02:34:31;8.45;;;4.80;;
22304;SDS011;18742;49.194;11.020;2022-07-17T02:36:56;6.75;;;4.78;;
22304;SDS011;18742;49.194;11.020;2022-07-17T02:39:22;6.10;;;5.00;;
22304;SDS011;18742;49.194;11.020;2022-07-17T02:41:47;6.15;;;5.30;;
22304;SDS011;18742;49.194;11.020;2022-07-17T02:44:13;7.57;;;5.07;;
22304;SDS011;18742;49.194;11.020;2022-07-17T02:46:39;6.60;;;5.03;;
22304;SDS011;18742;49.194;11.020;2022-07-17T02:49:04;6.15;;;5.15;;
22304;SDS011;18742;49.194;11.020;2022-07-17T02:51:31;7.88;;;6.03;;
22304;SDS011;18742;49.194;11.020;2022-07-17T02:53:56;7.65;;;5.57;;
22304;SDS011;18742;49.194;11.020;2022-07-17T02:56:22;6.88;;;5.07;;
22304;SDS011;18742;49.194;11.020;2022-07-17T02:58:47;6.47;;;5.60;;
22304;SDS011;18742;49.194;11.020;2022-07-17T03:01:13;6.88;;;5.45;;
22304;SDS011;18742;49.194;11.020;2022-07-17T03:03:38;9.52;;;5.70;;
22304;SDS011;18742;49.194;11.020;2022-07-17T03:06:05;7.53;;;5.43;;
22304;SDS011;18742;49.194;11.020;2022-07-17T03:08:31;7.05;;;5.55;;
22304;SDS011;18742;49.194;11.020;2022-07-17T03:10:56;7.00;;;5.50;;
22304;SDS011;18742;49.194;11.020;2022-07-17T03:13:22;7.13;;;6.05;;
22304;SDS011;18742;49.194;11.020;2022-07-17T03:15:47;9.45;;;6.15;;
22304;SDS011;18742;49.194;11.020;2022-07-17T03:18:13;9.25;;;5.80;;
22304;SDS011;18742;49.194;11.020;2022-07-17T03:20:39;7.97;;;6.10;;
22304;SDS011;18742;49.194;11.020;2022-07-17T03:23:04;5.93;;;5.32;;
22304;SDS011;18742;49.194;11.020;2022-07-17T03:25:30;8.35;;;5.70;;
22304;SDS011;18742;49.194;11.020;2022-07-17T03:27:56;7.22;;;6.05;;
22304;SDS011;18742;49.194;11.020;2022-07-17T03:30:21;8.27;;;5.78;;
22304;SDS011;18742;49.194;11.020;2022-07-17T03:32:47;8.10;;;5.88;;
22304;SDS011;18742;49.194;11.020;2022-07-17T03:35:12;7.60;;;6.13;;
22304;SDS011;18742;49.194;11.020;2022-07-17T03:37:38;9.10;;;6.15;;
22304;SDS011;18742;49.194;11.020;2022-07-17T03:40:05;7.40;;;6.13;;
22304;SDS011;18742;49.194;11.020;2022-07-17T03:42:31;7.53;;;5.57;;
22304;SDS011;18742;49.194;11.020;2022-07-17T03:44:57;8.63;;;5.95;;
22304;SDS011;18742;49.194;11.020;2022-07-17T03:47:22;7.07;;;5.47;;
22304;SDS011;18742;49.194;11.020;2022-07-17T03:49:48;7.88;;;5.60;;
22304;SDS011;18742;49.194;11.020;2022-07-17T03:52:13;8.82;;;6.10;;
22304;SDS011;18742;49.194;11.020;2022-07-17T03:54:39;7.70;;;5.57;;
22304;SDS011;18742;49.194;11.020;2022-07-17T03:57:04;7.30;;;5.90;;
22304;SDS011;18742;49.194;11.020;2022-07-17T03:59:30;9.02;;;5.80;;
22304;SDS011;18742;49.194;11.020;2022-07-17T04:01:55;9.73;;;5.65;;
22304;SDS011;18742;49.194;11.020;2022-07-17T04:04:21;7.32;;;6.10;;
22304;SDS011;18742;49.194;11.020;2022-07-17T04:06:47;7.10;;;5.60;;
22304;SDS011;18742;49.194;11.020;2022-07-17T04:09:13;8.38;;;5.55;;
22304;SDS011;18742;49.194;11.020;2022-07-17T04:11:39;8.05;;;5.53;;
22304;SDS011;18742;49.194;11.020;2022-07-17T04:14:04;7.47;;;5.90;;
22304;SDS011;18742;49.194;11.020;2022-07-17T04:16:30;7.85;;;6.18;;
22304;SDS011;18742;49.194;11.020;2022-07-17T04:18:56;9.48;;;6.13;;
22304;SDS011;18742;49.194;11.020;2022-07-17T04:21:21;9.38;;;6.40;;
22304;SDS011;18742;49.194;11.020;2022-07-17T04:23:47;11.00;;;6.60;;
22304;SDS011;18742;49.194;11.020;2022-07-17T04:26:12;7.05;;;6.30;;
22304;SDS011;18742;49.194;11.020;2022-07-17T04:28:38;8.00;;;6.50;;
22304;SDS011;18742;49.194;11.020;2022-07-17T04:31:04;8.73;;;6.10;;
22304;SDS011;18742;49.194;11.020;2022-07-17T04:33:30;7.53;;;6.13;;
22304;SDS011;18742;49.194;11.020;2022-07-17T04:35:55;8.02;;;6.32;;
22304;SDS011;18742;49.194;11.020;2022-07-17T04:38:21;7.43;;;5.55;;
22304;SDS011;18742;49.194;11.020;2022-07-17T04:40:46;9.07;;;5.75;;
22304;SDS011;18742;49.194;11.020;2022-07-17T04:43:12;6.93;;;5.75;;
22304;SDS011;18742;49.194;11.020;2022-07-17T04:45:38;8.02;;;5.57;;
22304;SDS011;18742;49.194;11.020;2022-07-17T04:48:04;13.27;;;5.88;;
22304;SDS011;18742;49.194;11.020;2022-07-17T04:50:29;8.95;;;6.00;;
22304;SDS011;18742;49.194;11.020;2022-07-17T04:52:55;6.03;;;5.07;;
22304;SDS011;18742;49.194;11.020;2022-07-17T04:55:22;8.05;;;5.15;;
22304;SDS011;18742;49.194;11.020;2022-07-17T04:57:48;6.80;;;5.13;;
22304;SDS011;18742;49.194;11.020;2022-07-17T05:00:13;7.55;;;5.55;;
22304;SDS011;18742;49.194;11.020;2022-07-17T05:02:40;6.95;;;5.30;;
22304;SDS011;18742;49.194;11.020;2022-07-17T05:05:06;8.05;;;5.93;;
22304;SDS011;18742;49.194;11.020;2022-07-17T05:07:31;7.57;;;5.60;;
22304;SDS011;18742;49.194;11.020;2022-07-17T05:09:57;6.88;;;5.30;;
22304;SDS011;18742;49.194;11.020;2022-07-17T05:12:23;7.35;;;5.63;;
22304;SDS011;18742;49.194;11.020;2022-07-17T05:14:48;8.25;;;5.63;;
22304;SDS011;18742;49.194;11.020;2022-07-17T05:17:14;6.32;;;5.28;;
22304;SDS011;18742;49.194;11.020;2022-07-17T05:19:39;7.15;;;5.47;;
22304;SDS011;18742;49.194;11.020;2022-07-17T05:22:05;8.45;;;5.60;;
22304;SDS011;18742;49.194;11.020;2022-07-17T05:24:31;9.15;;;5.88;;
22304;SDS011;18742;49.194;11.020;2022-07-17T05:26:59;9.85;;;5.90;;
22304;SDS011;18742;49.194;11.020;2022-07-17T05:29:26;8.50;;;5.40;;
22304;SDS011;18742;49.194;11.020;2022-07-17T05:31:52;6.88;;;5.30;;
22304;SDS011;18742;49.194;11.020;2022-07-17T05:34:17;6.45;;;5.38;;
22304;SDS011;18742;49.194;11.020;2022-07-17T05:36:43;6.40;;;5.55;;
22304;SDS011;18742;49.194;11.020;2022-07-17T05:39:09;6.72;;;5.22;;
22304;SDS011;18742;49.194;11.020;2022-07-17T05:41:35;6.82;;;4.93;;
22304;SDS011;18742;49.194;11.020;2022-07-17T05:44:01;5.70;;;4.57;;
22304;SDS011;18742;49.194;11.020;2022-07-17T05:46:27;5.40;;;4.30;;
22304;SDS011;18742;49.194;11.020;2022-07-17T05:48:53;6.80;;;4.45;;
22304;SDS011;18742;49.194;11.020;2022-07-17T05:51:18;5.25;;;3.92;;
22304;SDS011;18742;49.194;11.020;2022-07-17T05:53:44;6.75;;;4.00;;
22304;SDS011;18742;49.194;11.020;2022-07-17T05:56:09;8.90;;;4.03;;
22304;SDS011;18742;49.194;11.020;2022-07-17T05:58:35;6.43;;;3.60;;
22304;SDS011;18742;49.194;11.020;2022-07-17T06:01:01;6.32;;;4.00;;
22304;SDS011;18742;49.194;11.020;2022-07-17T06:03:26;7.22;;;3.53;;
22304;SDS011;18742;49.194;11.020;2022-07-17T06:05:54;3.53;;;2.78;;
22304;SDS011;18742;49.194;11.020;2022-07-17T06:08:19;8.90;;;3.05;;
22304;SDS011;18742;49.194;11.020;2022-07-17T06:10:45;4.28;;;3.03;;
22304;SDS011;18742;49.194;11.020;2022-07-17T06:13:11;6.10;;;2.95;;
22304;SDS011;18742;49.194;11.020;2022-07-17T06:15:36;2.92;;;2.30;;
22304;SDS011;18742;49.194;11.020;2022-07-17T06:18:02;6.07;;;2.47;;
22304;SDS011;18742;49.194;11.020;2022-07-17T06:20:28;4.90;;;2.30;;
22304;SDS011;18742;49.194;11.020;2022-07-17T06:22:55;2.85;;;2.20;;
22304;SDS011;18742;49.194;11.020;2022-07-17T06:25:20;4.20;;;2.30;;
22304;SDS011;18742;49.194;11.020;2022-07-17T06:27:46;3.63;;;2.25;;
22304;SDS011;18742;49.194;11.020;2022-07-17T06:30:12;4.15;;;1.77;;
22304;SDS011;18742;49.194;11.020;2022-07-17T06:32:39;4.60;;;2.13;;
22304;SDS011;18742;49.194;11.020;2022-07-17T06:35:06;3.55;;;1.83;;
22304;SDS011;18742;49.194;11.020;2022-07-17T06:37:32;5.72;;;2.20;;
22304;SDS011;18742;49.194;11.020;2022-07-17T06:39:58;3.05;;;1.70;;
22304;SDS011;18742;49.194;11.020;2022-07-17T06:42:23;4.55;;;1.65;;
22304;SDS011;18742;49.194;11.020;2022-07-17T06:44:49;4.05;;;2.03;;
22304;SDS011;18742;49.194;11.020;2022-07-17T06:47:14;2.97;;;1.60;;
22304;SDS011;18742;49.194;11.020;2022-07-17T06:49:40;3.67;;;1.85;;
22304;SDS011;18742;49.194;11.020;2022-07-17T06:52:05;2.95;;;1.70;;
22304;SDS011;18742;49.194;11.020;2022-07-17T06:54:31;3.47;;;1.88;;
22304;SDS011;18742;49.194;11.020;2022-07-17T06:56:57;5.88;;;1.92;;
22304;SDS011;18742;49.194;11.020;2022-07-17T06:59:22;3.30;;;1.73;;
22304;SDS011;18742;49.194;11.020;2022-07-17T07:01:48;4.65;;;1.90;;
22304;SDS011;18742;49.194;11.020;2022-07-17T07:04:13;2.72;;;1.60;;
22304;SDS011;18742;49.194;11.020;2022-07-17T07:06:39;4.38;;;1.50;;
22304;SDS011;18742;49.194;11.020;2022-07-17T07:09:05;7.45;;;2.05;;
22304;SDS011;18742;49.194;11.020;2022-07-17T07:11:30;4.18;;;1.67;;
22304;SDS011;18742;49.194;11.020;2022-07-17T07:13:56;3.35;;;1.58;;
22304;SDS011;18742;49.194;11.020;2022-07-17T07:16:22;3.83;;;1.50;;
22304;SDS011;18742;49.194;11.020;2022-07-17T07:18:48;2.40;;;1.65;;
22304;SDS011;18742;49.194;11.020;2022-07-17T07:21:13;4.10;;;1.98;;
22304;SDS011;18742;49.194;11.020;2022-07-17T07:23:39;4.15;;;1.50;;
22304;SDS011;18742;49.194;11.020;2022-07-17T07:26:05;3.78;;;1.60;;
22304;SDS011;18742;49.194;11.020;2022-07-17T07:28:31;5.50;;;1.65;;
22304;SDS011;18742;49.194;11.020;2022-07-17T07:30:58;3.42;;;1.65;;
22304;SDS011;18742;49.194;11.020;2022-07-17T07:33:23;2.85;;;1.58;;
22304;SDS011;18742;49.194;11.020;2022-07-17T07:35:49;3.47;;;1.60;;
22304;SDS011;18742;49.194;11.020;2022-07-17T07:38:15;3.58;;;1.50;;
22304;SDS011;18742;49.194;11.020;2022-07-17T07:40:40;2.40;;;1.60;;
22304;SDS011;18742;49.194;11.020;2022-07-17T07:43:06;3.97;;;1.70;;
22304;SDS011;18742;49.194;11.020;2022-07-17T07:45:31;5.90;;;1.80;;
22304;SDS011;18742;49.194;11.020;2022-07-17T07:47:57;4.43;;;1.95;;
22304;SDS011;18742;49.194;11.020;2022-07-17T07:50:23;3.20;;;1.48;;
22304;SDS011;18742;49.194;11.020;2022-07-17T07:52:50;3.50;;;1.45;;
22304;SDS011;18742;49.194;11.020;2022-07-17T07:55:16;2.58;;;1.40;;
22304;SDS011;18742;49.194;11.020;2022-07-17T07:57:42;2.47;;;1.50;;
22304;SDS011;18742;49.194;11.020;2022-07-17T08:00:08;2.50;;;1.38;;
22304;SDS011;18742;49.194;11.020;2022-07-17T08:02:38;2.78;;;1.70;;
22304;SDS011;18742;49.194;11.020;2022-07-17T08:05:04;3.75;;;2.03;;
22304;SDS011;18742;49.194;11.020;2022-07-17T08:07:30;8.05;;;1.50;;
22304;SDS011;18742;49.194;11.020;2022-07-17T08:09:56;2.88;;;1.48;;
22304;SDS011;18742;49.194;11.020;2022-07-17T08:12:23;3.20;;;1.30;;
22304;SDS011;18742;49.194;11.020;2022-07-17T08:14:49;2.15;;;1.35;;
22304;SDS011;18742;49.194;11.020;2022-07-17T08:17:15;2.30;;;1.13;;
22304;SDS011;18742;49.194;11.020;2022-07-17T08:19:40;4.15;;;1.58;;
22304;SDS011;18742;49.194;11.020;2022-07-17T08:22:06;2.72;;;1.40;;
22304;SDS011;18742;49.194;11.020;2022-07-17T08:24:32;4.15;;;1.30;;
22304;SDS011;18742;49.194;11.020;2022-07-17T08:26:57;2.05;;;1.20;;
22304;SDS011;18742;49.194;11.020;2022-07-17T08:29:23;2.53;;;1.30;;
22304;SDS011;18742;49.194;11.020;2022-07-17T08:31:48;1.38;;;0.77;;
22304;SDS011;18742;49.194;11.020;2022-07-17T08:34:15;1.95;;;0.90;;
22304;SDS011;18742;49.194;11.020;2022-07-17T08:36:41;2.72;;;1.00;;
22304;SDS011;18742;49.194;11.020;2022-07-17T08:39:07;2.15;;;1.17;;
22304;SDS011;18742;49.194;11.020;2022-07-17T08:41:36;2.42;;;1.02;;
22304;SDS011;18742;49.194;11.020;2022-07-17T08:44:03;2.25;;;0.90;;
22304;SDS011;18742;49.194;11.020;2022-07-17T08:46:29;2.00;;;0.93;;
22304;SDS011;18742;49.194;11.020;2022-07-17T08:48:58;4.18;;;1.20;;
22304;SDS011;18742;49.194;11.020;2022-07-17T08:51:27;2.60;;;0.93;;
22304;SDS011;18742;49.194;11.020;2022-07-17T08:53:53;1.98;;;1.08;;
22304;SDS011;18742;49.194;11.020;2022-07-17T08:56:19;2.35;;;1.10;;
22304;SDS011;18742;49.194;11.020;2022-07-17T08:58:45;1.48;;;0.95;;
22304;SDS011;18742;49.194;11.020;2022-07-17T09:01:11;3.47;;;1.10;;
22304;SDS011;18742;49.194;11.020;2022-07-17T09:03:38;1.58;;;0.98;;
22304;SDS011;18742;49.194;11.020;2022-07-17T09:06:04;2.47;;;1.30;;
22304;SDS011;18742;49.194;11.020;2022-07-17T09:08:30;3.88;;;1.10;;
22304;SDS011;18742;49.194;11.020;2022-07-17T09:10:58;3.67;;;1.10;;
22304;SDS011;18742;49.194;11.020;2022-07-17T09:13:28;2.13;;;1.10;;
22304;SDS011;18742;49.194;11.020;2022-07-17T09:15:56;2.65;;;0.95;;
22304;SDS011;18742;49.194;11.020;2022-07-17T09:18:23;2.75;;;0.88;;
22304;SDS011;18742;49.194;11.020;2022-07-17T09:20:50;1.30;;;0.80;;
22304;SDS011;18742;49.194;11.020;2022-07-17T09:23:18;1.95;;;0.90;;
22304;SDS011;18742;49.194;11.020;2022-07-17T09:25:48;1.88;;;1.00;;
22304;SDS011;18742;49.194;11.020;2022-07-17T09:28:19;2.03;;;1.00;;
22304;SDS011;18742;49.194;11.020;2022-07-17T09:30:46;1.30;;;1.02;;
22304;SDS011;18742;49.194;11.020;2022-07-17T09:35:51;2.45;;;0.90;;
22304;SDS011;18742;49.194;11.020;2022-07-17T09:38:27;2.28;;;1.10;;
22304;SDS011;18742;49.194;11.020;2022-07-17T09:41:16;1.08;;;0.90;;
22304;SDS011;18742;49.194;11.020;2022-07-17T09:43:55;3.80;;;0.95;;
22304;SDS011;18742;49.194;11.020;2022-07-17T09:46:27;1.75;;;1.00;;
22304;SDS011;18742;49.194;11.020;2022-07-17T09:48:58;1.38;;;0.93;;
22304;SDS011;18742;49.194;11.020;2022-07-17T09:51:29;2.03;;;0.90;;
22304;SDS011;18742;49.194;11.020;2022-07-17T09:53:58;1.98;;;1.00;;
22304;SDS011;18742;49.194;11.020;2022-07-17T09:56:26;2.50;;;1.00;;
22304;SDS011;18742;49.194;11.020;2022-07-17T09:58:55;2.13;;;1.00;;
22304;SDS011;18742;49.194;11.020;2022-07-17T10:01:25;5.03;;;1.02;;
22304;SDS011;18742;49.194;11.020;2022-07-17T10:03:51;2.38;;;0.98;;
22304;SDS011;18742;49.194;11.020;2022-07-17T10:06:19;2.13;;;0.90;;
22304;SDS011;18742;49.194;11.020;2022-07-17T10:08:49;1.48;;;0.90;;
22304;SDS011;18742;49.194;11.020;2022-07-17T10:11:17;2.00;;;0.88;;
22304;SDS011;18742;49.194;11.020;2022-07-17T10:13:46;1.98;;;1.20;;
22304;SDS011;18742;49.194;11.020;2022-07-17T10:16:12;1.85;;;1.10;;
22304;SDS011;18742;49.194;11.020;2022-07-17T10:18:40;1.65;;;1.00;;
22304;SDS011;18742;49.194;11.020;2022-07-17T10:21:10;1.60;;;0.93;;
22304;SDS011;18742;49.194;11.020;2022-07-17T10:23:40;1.70;;;1.05;;
22304;SDS011;18742;49.194;11.020;2022-07-17T10:26:12;1.05;;;0.85;;
22304;SDS011;18742;49.194;11.020;2022-07-17T10:28:39;1.63;;;1.10;;
22304;SDS011;18742;49.194;11.020;2022-07-17T10:31:06;2.03;;;0.98;;
22304;SDS011;18742;49.194;11.020;2022-07-17T10:33:31;1.40;;;0.90;;
22304;SDS011;18742;49.194;11.020;2022-07-17T10:35:57;2.05;;;0.93;;
22304;SDS011;18742;49.194;11.020;2022-07-17T10:38:24;3.25;;;1.10;;
22304;SDS011;18742;49.194;11.020;2022-07-17T10:41:00;1.77;;;0.85;;
22304;SDS011;18742;49.194;11.020;2022-07-17T10:43:27;1.05;;;0.82;;
22304;SDS011;18742;49.194;11.020;2022-07-17T10:45:53;2.00;;;1.08;;
22304;SDS011;18742;49.194;11.020;2022-07-17T10:48:19;2.10;;;1.00;;
22304;SDS011;18742;49.194;11.020;2022-07-17T10:50:54;2.08;;;0.90;;
22304;SDS011;18742;49.194;11.020;2022-07-17T10:53:21;2.10;;;0.90;;
22304;SDS011;18742;49.194;11.020;2022-07-17T10:55:57;2.60;;;0.90;;
22304;SDS011;18742;49.194;11.020;2022-07-17T10:58:30;3.38;;;1.10;;
22304;SDS011;18742;49.194;11.020;2022-07-17T11:03:51;2.70;;;1.05;;
22304;SDS011;18742;49.194;11.020;2022-07-17T11:06:19;1.27;;;0.80;;
22304;SDS011;18742;49.194;11.020;2022-07-17T11:08:50;2.38;;;0.80;;
22304;SDS011;18742;49.194;11.020;2022-07-17T11:19:22;2.55;;;0.93;;
22304;SDS011;18742;49.194;11.020;2022-07-17T11:21:49;2.28;;;1.02;;
22304;SDS011;18742;49.194;11.020;2022-07-17T11:24:15;1.05;;;0.80;;
22304;SDS011;18742;49.194;11.020;2022-07-17T11:26:42;1.95;;;0.85;;
22304;SDS011;18742;49.194;11.020;2022-07-17T11:29:09;2.30;;;0.90;;
22304;SDS011;18742;49.194;11.020;2022-07-17T11:31:35;1.48;;;0.90;;
22304;SDS011;18742;49.194;11.020;2022-07-17T11:34:02;1.40;;;0.70;;
22304;SDS011;18742;49.194;11.020;2022-07-17T11:36:32;1.92;;;1.02;;
22304;SDS011;18742;49.194;11.020;2022-07-17T11:39:03;1.85;;;0.80;;
22304;SDS011;18742;49.194;11.020;2022-07-17T11:41:37;2.58;;;1.05;;
22304;SDS011;18742;49.194;11.020;2022-07-17T11:44:11;2.90;;;0.90;;
22304;SDS011;18742;49.194;11.020;2022-07-17T11:46:41;2.70;;;0.88;;
22304;SDS011;18742;49.194;11.020;2022-07-17T11:49:10;1.92;;;1.00;;
22304;SDS011;18742;49.194;11.020;2022-07-17T11:51:43;1.98;;;1.10;;
22304;SDS011;18742;49.194;11.020;2022-07-17T11:54:13;1.25;;;0.80;;
22304;SDS011;18742;49.194;11.020;2022-07-17T11:56:40;1.35;;;0.80;;
22304;SDS011;18742;49.194;11.020;2022-07-17T11:59:08;1.70;;;1.00;;
22304;SDS011;18742;49.194;11.020;2022-07-17T12:01:44;1.73;;;0.90;;
22304;SDS011;18742;49.194;11.020;2022-07-17T12:04:13;1.48;;;0.85;;
22304;SDS011;18742;49.194;11.020;2022-07-17T12:06:40;4.45;;;0.70;;
22304;SDS011;18742;49.194;11.020;2022-07-17T12:09:06;2.33;;;0.80;;
22304;SDS011;18742;49.194;11.020;2022-07-17T12:11:33;2.80;;;0.70;;
22304;SDS011;18742;49.194;11.020;2022-07-17T12:14:09;2.50;;;1.00;;
22304;SDS011;18742;49.194;11.020;2022-07-17T12:16:35;2.38;;;0.95;;
22304;SDS011;18742;49.194;11.020;2022-07-17T12:21:29;2.75;;;0.70;;
22304;SDS011;18742;49.194;11.020;2022-07-17T12:24:03;1.45;;;0.82;;
22304;SDS011;18742;49.194;11.020;2022-07-17T12:26:30;2.42;;;0.85;;
22304;SDS011;18742;49.194;11.020;2022-07-17T12:28:57;2.20;;;0.95;;
22304;SDS011;18742;49.194;11.020;2022-07-17T12:31:24;0.90;;;0.75;;
22304;SDS011;18742;49.194;11.020;2022-07-17T12:33:51;1.80;;;0.80;;
22304;SDS011;18742;49.194;11.020;2022-07-17T12:36:18;2.15;;;0.90;;
22304;SDS011;18742;49.194;11.020;2022-07-17T12:38:44;1.98;;;0.85;;
22304;SDS011;18742;49.194;11.020;2022-07-17T12:41:09;3.53;;;1.00;;
22304;SDS011;18742;49.194;11.020;2022-07-17T12:43:36;4.20;;;1.10;;
22304;SDS011;18742;49.194;11.020;2022-07-17T12:46:01;1.08;;;0.80;;
22304;SDS011;18742;49.194;11.020;2022-07-17T12:48:27;1.60;;;0.95;;
22304;SDS011;18742;49.194;11.020;2022-07-17T12:50:53;2.35;;;1.02;;
22304;SDS011;18742;49.194;11.020;2022-07-17T12:53:18;1.08;;;0.90;;
22304;SDS011;18742;49.194;11.020;2022-07-17T12:55:44;1.40;;;0.90;;
22304;SDS011;18742;49.194;11.020;2022-07-17T12:58:09;3.03;;;1.08;;
22304;SDS011;18742;49.194;11.020;2022-07-17T13:00:35;2.35;;;1.02;;
22304;SDS011;18742;49.194;11.020;2022-07-17T13:03:01;1.83;;;1.05;;
22304;SDS011;18742;49.194;11.020;2022-07-17T13:05:28;1.00;;;0.80;;
22304;SDS011;18742;49.194;11.020;2022-07-17T13:07:53;2.90;;;0.95;;
22304;SDS011;18742;49.194;11.020;2022-07-17T13:10:19;2.05;;;0.88;;
22304;SDS011;18742;49.194;11.020;2022-07-17T13:12:45;1.60;;;0.90;;
22304;SDS011;18742;49.194;11.020;2022-07-17T13:15:11;0.95;;;0.93;;
22304;SDS011;18742;49.194;11.020;2022-07-17T13:17:36;0.98;;;0.90;;
22304;SDS011;18742;49.194;11.020;2022-07-17T13:20:03;1.90;;;0.95;;
22304;SDS011;18742;49.194;11.020;2022-07-17T13:22:29;1.25;;;1.00;;
22304;SDS011;18742;49.194;11.020;2022-07-17T13:24:55;1.30;;;0.88;;
22304;SDS011;18742;49.194;11.020;2022-07-17T13:27:21;1.65;;;1.00;;
22304;SDS011;18742;49.194;11.020;2022-07-17T13:29:47;1.45;;;1.10;;
22304;SDS011;18742;49.194;11.020;2022-07-17T13:32:12;1.40;;;1.05;;
22304;SDS011;18742;49.194;11.020;2022-07-17T13:34:38;1.52;;;1.10;;
22304;SDS011;18742;49.194;11.020;2022-07-17T13:37:04;2.08;;;1.10;;
22304;SDS011;18742;49.194;11.020;2022-07-17T13:39:30;1.25;;;1.05;;
22304;SDS011;18742;49.194;11.020;2022-07-17T13:41:55;1.10;;;1.00;;
22304;SDS011;18742;49.194;11.020;2022-07-17T13:44:21;1.13;;;0.90;;
22304;SDS011;18742;49.194;11.020;2022-07-17T13:46:47;1.92;;;1.33;;
22304;SDS011;18742;49.194;11.020;2022-07-17T13:49:12;1.50;;;1.10;;
22304;SDS011;18742;49.194;11.020;2022-07-17T13:51:38;2.03;;;1.10;;
22304;SDS011;18742;49.194;11.020;2022-07-17T13:54:04;3.25;;;1.10;;
22304;SDS011;18742;49.194;11.020;2022-07-17T13:56:31;1.45;;;1.20;;
22304;SDS011;18742;49.194;11.020;2022-07-17T13:58:57;1.55;;;1.10;;
22304;SDS011;18742;49.194;11.020;2022-07-17T14:01:23;1.42;;;1.17;;
22304;SDS011;18742;49.194;11.020;2022-07-17T14:03:49;3.10;;;1.20;;
22304;SDS011;18742;49.194;11.020;2022-07-17T14:06:15;1.42;;;1.20;;
22304;SDS011;18742;49.194;11.020;2022-07-17T14:08:40;2.70;;;1.30;;
22304;SDS011;18742;49.194;11.020;2022-07-17T14:11:06;1.40;;;1.30;;
22304;SDS011;18742;49.194;11.020;2022-07-17T14:13:32;1.63;;;1.33;;
22304;SDS011;18742;49.194;11.020;2022-07-17T14:15:57;1.88;;;1.30;;
22304;SDS011;18742;49.194;11.020;2022-07-17T14:18:23;1.63;;;1.20;;
22304;SDS011;18742;49.194;11.020;2022-07-17T14:20:49;3.70;;;1.40;;
22304;SDS011;18742;49.194;11.020;2022-07-17T14:23:14;2.80;;;1.30;;
22304;SDS011;18742;49.194;11.020;2022-07-17T14:25:42;3.08;;;1.40;;
22304;SDS011;18742;49.194;11.020;2022-07-17T14:28:08;2.88;;;1.33;;
22304;SDS011;18742;49.194;11.020;2022-07-17T14:30:34;2.28;;;1.30;;
22304;SDS011;18742;49.194;11.020;2022-07-17T14:33:00;1.40;;;1.30;;
22304;SDS011;18742;49.194;11.020;2022-07-17T14:35:26;2.28;;;1.42;;
22304;SDS011;18742;49.194;11.020;2022-07-17T14:37:53;1.55;;;1.30;;
22304;SDS011;18742;49.194;11.020;2022-07-17T14:40:26;1.40;;;1.30;;
22304;SDS011;18742;49.194;11.020;2022-07-17T14:42:52;2.33;;;1.50;;
22304;SDS011;18742;49.194;11.020;2022-07-17T14:45:18;3.35;;;1.60;;